createdAt,value
2017-11-05T00:00:49.734Z,100222.02
2017-11-05T00:03:17.378Z,100226.70
2017-11-05T00:05:45.074Z,100225.34
2017-11-05T00:08:12.713Z,100229.91
2017-11-05T00:10:40.396Z,100230.85
2017-11-05T00:13:08.045Z,100234.70
2017-11-05T00:15:35.734Z,100230.77
2017-11-05T00:18:03.388Z,100227.09
2017-11-05T00:20:31.095Z,100220.48
2017-11-05T00:22:58.758Z,100224.23
2017-11-05T00:25:26.394Z,100215.58
2017-11-05T00:27:54.062Z,100216.14
2017-11-05T00:30:21.714Z,100214.34
2017-11-05T00:32:49.401Z,100209.27
2017-11-05T00:35:17.111Z,100212.36
2017-11-05T00:37:44.816Z,100213.60
2017-11-05T00:40:12.463Z,100212.63
2017-11-05T00:42:40.092Z,100211.31
2017-11-05T00:45:07.730Z,100200.59
2017-11-05T00:47:35.426Z,100203.60
2017-11-05T00:50:03.986Z,100197.24
2017-11-05T00:52:31.675Z,100208.61
2017-11-05T00:54:59.335Z,100205.16
2017-11-05T00:57:27.024Z,100206.63
2017-11-05T00:59:54.680Z,100206.95
2017-11-05T01:02:22.359Z,100210.31
2017-11-05T01:04:50.012Z,100203.57
2017-11-05T01:07:17.715Z,100204.55
2017-11-05T01:09:45.379Z,100196.80
2017-11-05T01:12:13.057Z,100200.98
2017-11-05T01:14:40.703Z,100207.84
2017-11-05T01:17:08.378Z,100202.13
2017-11-05T01:19:36.070Z,100205.00
2017-11-05T01:22:03.731Z,100211.23
2017-11-05T01:24:31.419Z,100209.52
2017-11-05T01:26:59.067Z,100202.48
2017-11-05T01:29:26.708Z,100203.05
2017-11-05T01:31:54.376Z,100193.05
2017-11-05T01:34:22.067Z,100190.27
2017-11-05T01:36:49.750Z,100187.84
2017-11-05T01:39:17.451Z,100187.53
2017-11-05T01:41:45.098Z,100182.70
2017-11-05T01:44:12.779Z,100193.09
2017-11-05T01:46:40.437Z,100194.31
2017-11-05T01:49:08.113Z,100184.89
2017-11-05T01:51:35.778Z,100186.88
2017-11-05T01:54:03.462Z,100191.05
2017-11-05T01:56:31.119Z,100198.73
2017-11-05T01:58:58.761Z,100205.19
2017-11-05T02:01:26.364Z,100202.75
2017-11-05T02:03:54.040Z,100192.27
2017-11-05T02:06:21.678Z,100197.91
2017-11-05T02:08:49.370Z,100194.06
2017-11-05T02:11:17.009Z,100196.30
2017-11-05T02:13:44.712Z,100195.09
2017-11-05T02:16:12.369Z,100196.93
2017-11-05T02:18:40.028Z,100189.84
2017-11-05T02:21:07.713Z,100189.84
2017-11-05T02:23:35.355Z,100192.31
2017-11-05T02:26:03.034Z,100193.11
2017-11-05T02:28:30.707Z,100187.48
2017-11-05T02:30:58.417Z,100194.52
2017-11-05T02:33:26.059Z,100189.45
2017-11-05T02:35:53.781Z,100198.77
2017-11-05T02:38:21.429Z,100194.43
2017-11-05T02:40:49.120Z,100197.63
2017-11-05T02:43:16.779Z,100201.80
2017-11-05T02:45:44.473Z,100199.59
2017-11-05T02:48:12.117Z,100193.78
2017-11-05T02:50:39.808Z,100188.95
2017-11-05T02:53:07.459Z,100176.52
2017-11-05T02:55:35.107Z,100176.45
2017-11-05T02:58:02.794Z,100172.77
2017-11-05T03:00:30.441Z,100166.46
2017-11-05T03:02:58.127Z,100173.82
2017-11-05T03:05:25.799Z,100192.38
2017-11-05T03:07:53.487Z,100181.66
2017-11-05T03:10:21.129Z,100186.92
2017-11-05T03:12:48.745Z,100193.20
2017-11-05T03:15:16.409Z,100195.97
2017-11-05T03:17:44.099Z,100203.59
2017-11-05T03:20:11.745Z,100202.59
2017-11-05T03:22:39.442Z,100200.30
2017-11-05T03:25:07.118Z,100195.31
2017-11-05T03:27:34.759Z,100197.52
2017-11-05T03:30:02.413Z,100196.11
2017-11-05T03:32:30.122Z,100202.16
2017-11-05T03:34:57.823Z,100208.30
2017-11-05T03:37:25.506Z,100208.38
2017-11-05T03:39:53.159Z,100204.80
2017-11-05T03:42:20.814Z,100203.34
2017-11-05T03:44:48.462Z,100195.17
2017-11-05T03:47:16.132Z,100199.02
2017-11-05T03:49:43.817Z,100188.89
2017-11-05T03:52:11.498Z,100192.56
2017-11-05T03:54:39.221Z,100195.52
2017-11-05T03:57:06.907Z,100196.80
2017-11-05T03:59:34.622Z,100188.72
2017-11-05T04:02:02.286Z,100195.43
2017-11-05T04:04:29.999Z,100193.45
2017-11-05T04:06:57.686Z,100194.75
2017-11-05T04:09:25.379Z,100186.58
2017-11-05T04:11:53.029Z,100182.23
2017-11-05T04:14:20.725Z,100179.80
2017-11-05T04:16:48.381Z,100179.30
2017-11-05T04:19:16.065Z,100183.37
2017-11-05T04:21:43.719Z,100186.72
2017-11-05T04:24:11.412Z,100189.42
2017-11-05T04:26:39.056Z,100186.98
2017-11-05T04:29:06.739Z,100187.88
2017-11-05T04:31:34.385Z,100185.81
2017-11-05T04:34:02.066Z,100185.02
2017-11-05T04:36:29.800Z,100193.17
2017-11-05T04:38:57.501Z,100199.73
2017-11-05T04:41:25.188Z,100191.42
2017-11-05T04:43:52.871Z,100188.63
2017-11-05T04:46:20.575Z,100188.13
2017-11-05T04:48:48.222Z,100183.23
2017-11-05T04:51:15.906Z,100176.35
2017-11-05T04:53:43.551Z,100174.17
2017-11-05T04:56:11.277Z,100176.05
2017-11-05T04:58:38.955Z,100187.75
2017-11-05T05:01:06.639Z,100189.53
2017-11-05T05:03:34.295Z,100190.84
2017-11-05T05:06:01.985Z,100188.56
2017-11-05T05:08:29.637Z,100185.44
2017-11-05T05:10:57.333Z,100190.36
2017-11-05T05:13:24.983Z,100193.78
2017-11-05T05:15:52.691Z,100190.77
2017-11-05T05:18:20.350Z,100194.77
2017-11-05T05:20:48.035Z,100196.42
2017-11-05T05:23:15.675Z,100191.41
2017-11-05T05:25:43.375Z,100200.91
2017-11-05T05:28:10.957Z,100202.29
2017-11-05T05:30:38.647Z,100202.63
2017-11-05T05:33:06.306Z,100205.55
2017-11-05T05:35:34.021Z,100202.94
2017-11-05T05:38:01.667Z,100203.75
2017-11-05T05:40:29.379Z,100210.47
2017-11-05T05:42:57.046Z,100215.77
2017-11-05T05:45:24.757Z,100215.61
2017-11-05T05:47:52.472Z,100211.92
2017-11-05T05:50:20.152Z,100209.63
2017-11-05T05:52:47.866Z,100218.07
2017-11-05T05:55:15.530Z,100222.31
2017-11-05T05:57:43.221Z,100220.99
2017-11-05T06:00:10.884Z,100218.06
2017-11-05T06:02:38.597Z,100218.62
2017-11-05T06:05:06.257Z,100220.43
2017-11-05T06:07:33.942Z,100221.41
2017-11-05T06:10:01.598Z,100221.41
2017-11-05T06:12:29.224Z,100226.75
2017-11-05T06:14:56.847Z,100227.38
2017-11-05T06:17:24.554Z,100225.17
2017-11-05T06:19:52.213Z,100230.80
2017-11-05T06:22:19.919Z,100227.87
2017-11-05T06:24:47.590Z,100229.11
2017-11-05T06:27:15.322Z,100230.98
2017-11-05T06:29:42.974Z,100228.07
2017-11-05T06:32:10.649Z,100235.85
2017-11-05T06:34:38.342Z,100240.41
2017-11-05T06:37:06.032Z,100241.00
2017-11-05T06:39:33.750Z,100240.72
2017-11-05T06:42:01.358Z,100242.52
2017-11-05T06:44:29.057Z,100242.81
2017-11-05T06:46:56.646Z,100245.82
2017-11-05T06:49:24.334Z,100240.51
2017-11-05T06:51:51.996Z,100238.55
2017-11-05T06:54:19.716Z,100238.30
2017-11-05T06:56:47.376Z,100239.94
2017-11-05T06:59:15.094Z,100233.55
2017-11-05T07:01:42.787Z,100241.80
2017-11-05T07:04:10.466Z,100242.40
2017-11-05T07:06:38.135Z,100252.00
2017-11-05T07:09:05.830Z,100251.37
2017-11-05T07:11:33.440Z,100261.93
2017-11-05T07:14:01.134Z,100259.64
2017-11-05T07:16:28.820Z,100261.41
2017-11-05T07:18:56.522Z,100259.23
2017-11-05T07:21:24.127Z,100263.48
2017-11-05T07:23:51.842Z,100260.35
2017-11-05T07:26:19.436Z,100271.02
2017-11-05T07:28:47.106Z,100276.77
2017-11-05T07:31:14.839Z,100276.07
2017-11-05T07:33:42.518Z,100267.89
2017-11-05T07:36:10.252Z,100264.39
2017-11-05T07:38:37.938Z,100266.35
2017-11-05T07:41:05.647Z,100271.35
2017-11-05T07:43:33.322Z,100283.69
2017-11-05T07:46:01.081Z,100275.11
2017-11-05T07:48:28.737Z,100283.59
2017-11-05T07:50:56.426Z,100285.34
2017-11-05T07:53:24.026Z,100290.50
2017-11-05T07:55:51.724Z,100292.20
2017-11-05T07:58:19.386Z,100283.55
2017-11-05T08:00:47.101Z,100278.65
2017-11-05T08:03:14.752Z,100282.33
2017-11-05T08:05:42.452Z,100280.03
2017-11-05T08:08:10.119Z,100274.70
2017-11-05T08:10:37.786Z,100269.80
2017-11-05T08:13:05.495Z,100271.66
2017-11-05T08:15:33.165Z,100275.75
2017-11-05T08:18:00.858Z,100276.98
2017-11-05T08:20:28.518Z,100275.02
2017-11-05T08:22:56.226Z,100279.42
2017-11-05T08:25:23.905Z,100269.11
2017-11-05T08:27:51.597Z,100270.90
2017-11-05T08:30:19.265Z,100270.66
2017-11-05T08:32:46.981Z,100280.39
2017-11-05T08:35:14.711Z,100297.16
2017-11-05T08:37:42.404Z,100308.56
2017-11-05T08:40:10.070Z,100317.48
2017-11-05T08:42:37.679Z,100316.16
2017-11-05T08:45:05.470Z,100319.62
2017-11-05T08:47:33.085Z,100318.06
2017-11-05T08:50:00.782Z,100318.36
2017-11-05T08:52:28.452Z,100325.66
2017-11-05T08:54:56.179Z,100322.88
2017-11-05T08:57:23.778Z,100329.08
2017-11-05T08:59:51.490Z,100335.54
2017-11-05T09:02:19.187Z,100340.39
2017-11-05T09:04:46.886Z,100351.28
2017-11-05T09:07:14.544Z,100349.31
2017-11-05T09:09:42.206Z,100349.31
2017-11-05T09:12:09.931Z,100344.88
2017-11-05T09:14:37.593Z,100335.47
2017-11-05T09:17:05.300Z,100333.92
2017-11-05T09:19:32.968Z,100336.94
2017-11-05T09:22:00.664Z,100328.27
2017-11-05T09:24:28.327Z,100320.54
2017-11-05T09:26:56.019Z,100314.16
2017-11-05T09:29:23.610Z,100316.51
2017-11-05T09:31:51.308Z,100306.83
2017-11-05T09:34:18.960Z,100301.55
2017-11-05T09:36:46.701Z,100297.79
2017-11-05T09:39:14.342Z,100292.73
2017-11-05T09:41:42.024Z,100296.32
2017-11-05T09:44:09.715Z,100292.11
2017-11-05T09:46:37.371Z,100288.16
2017-11-05T09:49:05.001Z,100281.12
2017-11-05T09:51:32.659Z,100279.89
2017-11-05T09:54:00.293Z,100284.09
2017-11-05T09:56:27.963Z,100289.27
2017-11-05T09:58:55.642Z,100291.55
2017-11-05T10:01:23.310Z,100299.34
2017-11-05T10:03:51.028Z,100302.89
2017-11-05T10:06:18.800Z,100306.98
2017-11-05T10:08:46.446Z,100313.25
2017-11-05T10:11:14.146Z,100313.53
2017-11-05T10:13:41.807Z,100306.09
2017-11-05T10:16:09.509Z,100307.73
2017-11-05T10:18:37.174Z,100306.75
2017-11-05T10:21:04.869Z,100314.86
2017-11-05T10:23:32.523Z,100316.45
2017-11-05T10:26:00.202Z,100310.89
2017-11-05T10:28:27.864Z,100317.00
2017-11-05T10:30:55.574Z,100308.91
2017-11-05T10:33:23.248Z,100313.69
2017-11-05T10:35:53.926Z,100312.70
2017-11-05T10:38:21.573Z,100315.05
2017-11-05T10:40:49.275Z,100314.47
2017-11-05T10:43:16.936Z,100311.11
2017-11-05T10:45:44.593Z,100311.84
2017-11-05T10:48:12.269Z,100310.19
2017-11-05T10:50:39.908Z,100321.66
2017-11-05T10:53:07.575Z,100323.41
2017-11-05T10:55:35.224Z,100321.91
2017-11-05T10:58:02.919Z,100318.48
2017-11-05T11:00:30.562Z,100329.45
2017-11-05T11:02:58.238Z,100330.03
2017-11-05T11:05:25.838Z,100329.27
2017-11-05T11:07:53.511Z,100341.80
2017-11-05T11:10:21.146Z,100339.92
2017-11-05T11:12:48.855Z,100340.47
2017-11-05T11:15:16.496Z,100348.10
2017-11-05T11:17:44.160Z,100356.44
2017-11-05T11:20:11.876Z,100364.03
2017-11-05T11:22:39.517Z,100376.13
2017-11-05T11:25:07.211Z,100367.38
2017-11-05T11:27:34.857Z,100366.45
2017-11-05T11:30:02.568Z,100359.35
2017-11-05T11:32:30.239Z,100361.66
2017-11-05T11:34:57.950Z,100370.64
2017-11-05T11:37:25.607Z,100370.00
2017-11-05T11:39:53.290Z,100373.94
2017-11-05T11:42:20.929Z,100375.83
2017-11-05T11:44:48.629Z,100368.05
2017-11-05T11:47:16.259Z,100369.69
2017-11-05T11:49:43.923Z,100368.21
2017-11-05T11:52:11.599Z,100367.95
2017-11-05T11:54:39.256Z,100373.88
2017-11-05T11:57:06.939Z,100373.88
2017-11-05T11:59:34.583Z,100377.57
2017-11-05T12:02:02.287Z,100380.25
2017-11-05T12:04:29.968Z,100384.73
2017-11-05T12:06:57.654Z,100391.60
2017-11-05T12:09:25.300Z,100395.80
2017-11-05T12:11:53.059Z,100388.34
2017-11-05T12:14:20.724Z,100397.58
2017-11-05T12:16:48.438Z,100384.48
2017-11-05T12:19:16.084Z,100399.08
2017-11-05T12:21:43.722Z,100408.72
2017-11-05T12:24:11.417Z,100402.10
2017-11-05T12:26:39.015Z,100403.56
2017-11-05T12:29:06.703Z,100406.77
2017-11-05T12:31:34.366Z,100412.33
2017-11-05T12:34:02.072Z,100410.80
2017-11-05T12:36:29.785Z,100418.90
2017-11-05T12:38:57.463Z,100413.17
2017-11-05T12:41:25.113Z,100410.80
2017-11-05T12:43:52.819Z,100412.76
2017-11-05T12:46:20.485Z,100415.28
2017-11-05T12:48:48.197Z,100419.23
2017-11-05T12:51:15.853Z,100428.00
2017-11-05T12:53:43.518Z,100419.80
2017-11-05T12:56:11.192Z,100429.06
2017-11-05T12:58:38.840Z,100436.10
2017-11-05T13:01:06.526Z,100440.20
2017-11-05T13:03:34.178Z,100438.47
2017-11-05T13:06:01.883Z,100438.89
2017-11-05T13:08:29.539Z,100441.27
2017-11-05T13:10:57.223Z,100441.67
2017-11-05T13:13:24.892Z,100451.77
2017-11-05T13:15:52.595Z,100457.90
2017-11-05T13:18:20.247Z,100449.54
2017-11-05T13:20:47.946Z,100460.69
2017-11-05T13:23:15.619Z,100456.09
2017-11-05T13:25:43.331Z,100463.96
2017-11-05T13:28:10.998Z,100465.44
2017-11-05T13:30:38.717Z,100466.26
2017-11-05T13:33:06.363Z,100469.05
2017-11-05T13:35:34.087Z,100461.90
2017-11-05T13:38:01.767Z,100465.35
2017-11-05T13:40:29.421Z,100467.31
2017-11-05T13:42:57.101Z,100458.56
2017-11-05T13:45:24.773Z,100460.67
2017-11-05T13:47:52.466Z,100474.93
2017-11-05T13:50:20.125Z,100476.24
2017-11-05T13:52:47.793Z,100478.13
2017-11-05T13:55:15.457Z,100486.48
2017-11-05T13:57:43.162Z,100496.31
2017-11-05T14:00:10.820Z,100496.97
2017-11-05T14:02:38.524Z,100481.65
2017-11-05T14:05:06.106Z,100478.13
2017-11-05T14:07:33.817Z,100487.61
2017-11-05T14:10:01.942Z,100501.20
2017-11-05T14:12:29.588Z,100513.58
2017-11-05T14:14:57.287Z,100519.45
2017-11-05T14:17:24.959Z,100525.51
2017-11-05T14:19:52.664Z,100514.86
2017-11-05T14:22:20.319Z,100513.12
2017-11-05T14:24:48.015Z,100509.03
2017-11-05T14:27:15.657Z,100515.91
2017-11-05T14:29:43.354Z,100515.27
2017-11-05T14:32:11.015Z,100520.23
2017-11-05T14:34:38.713Z,100522.23
2017-11-05T14:37:06.401Z,100520.42
2017-11-05T14:39:34.083Z,100516.97
2017-11-05T14:42:01.682Z,100524.67
2017-11-05T14:44:29.415Z,100515.64
2017-11-05T14:46:57.112Z,100521.63
2017-11-05T14:49:24.838Z,100525.80
2017-11-05T14:51:52.532Z,100525.72
2017-11-05T14:54:20.213Z,100535.34
2017-11-05T14:56:47.934Z,100528.98
2017-11-05T14:59:15.587Z,100536.66
2017-11-05T15:01:43.283Z,100540.31
2017-11-05T15:04:10.949Z,100542.27
2017-11-05T15:06:38.793Z,100539.14
2017-11-05T15:09:06.450Z,100541.59
2017-11-05T15:11:34.151Z,100540.27
2017-11-05T15:14:01.818Z,100543.80
2017-11-05T15:16:29.509Z,100550.41
2017-11-05T15:18:57.180Z,100549.34
2017-11-05T15:21:24.873Z,100552.02
2017-11-05T15:23:52.527Z,100556.11
2017-11-05T15:26:20.228Z,100562.58
2017-11-05T15:28:47.890Z,100566.25
2017-11-05T15:31:15.573Z,100565.64
2017-11-05T15:33:43.220Z,100572.93
2017-11-05T15:36:10.975Z,100577.58
2017-11-05T15:38:38.662Z,100577.32
2017-11-05T15:41:06.380Z,100577.66
2017-11-05T15:43:34.069Z,100584.82
2017-11-05T15:46:01.719Z,100599.89
2017-11-05T15:48:29.462Z,100600.19
2017-11-05T15:50:57.173Z,100600.93
2017-11-05T15:53:24.869Z,100610.31
2017-11-05T15:55:52.630Z,100617.98
2017-11-05T15:58:20.347Z,100627.33
2017-11-05T16:00:48.050Z,100633.19
2017-11-05T16:03:15.811Z,100638.67
2017-11-05T16:05:43.494Z,100642.58
2017-11-05T16:08:11.185Z,100645.36
2017-11-05T16:10:38.829Z,100654.11
2017-11-05T16:13:06.514Z,100662.45
2017-11-05T16:15:34.171Z,100665.48
2017-11-05T16:18:01.880Z,100668.88
2017-11-05T16:20:29.528Z,100673.62
2017-11-05T16:22:57.234Z,100676.31
2017-11-05T16:25:24.943Z,100683.41
2017-11-05T16:27:52.642Z,100684.71
2017-11-05T16:30:20.318Z,100687.38
2017-11-05T16:32:47.972Z,100697.02
2017-11-05T16:35:15.698Z,100698.32
2017-11-05T16:37:43.365Z,100691.84
2017-11-05T16:40:11.059Z,100690.19
2017-11-05T16:42:38.713Z,100690.92
2017-11-05T16:45:06.393Z,100692.88
2017-11-05T16:47:34.078Z,100694.73
2017-11-05T16:50:01.758Z,100695.21
2017-11-05T16:52:29.410Z,100705.00
2017-11-05T16:54:57.087Z,100708.95
2017-11-05T16:57:24.734Z,100710.27
2017-11-05T16:59:52.420Z,100708.09
2017-11-05T17:02:20.059Z,100721.91
2017-11-05T17:04:47.714Z,100723.67
2017-11-05T17:07:15.435Z,100720.36
2017-11-05T17:09:43.080Z,100726.23
2017-11-05T17:12:10.769Z,100729.63
2017-11-05T17:14:38.502Z,100734.95
2017-11-05T17:17:06.211Z,100734.69
2017-11-05T17:19:33.853Z,100747.80
2017-11-05T17:22:01.592Z,100760.53
2017-11-05T17:24:29.248Z,100761.66
2017-11-05T17:26:56.960Z,100768.75
2017-11-05T17:29:24.654Z,100774.20
2017-11-05T17:31:52.311Z,100774.12
2017-11-05T17:34:20.004Z,100782.45
2017-11-05T17:36:47.719Z,100778.02
2017-11-05T17:39:15.426Z,100774.58
2017-11-05T17:41:43.069Z,100775.05
2017-11-05T17:44:10.767Z,100777.60
2017-11-05T17:46:38.432Z,100782.92
2017-11-05T17:49:06.116Z,100784.59
2017-11-05T17:51:33.773Z,100783.48
2017-11-05T17:54:01.481Z,100791.03
2017-11-05T17:56:30.135Z,100791.03
2017-11-05T17:58:57.846Z,100800.95
2017-11-05T18:01:25.497Z,100804.88
2017-11-05T18:03:53.191Z,100808.77
2017-11-05T18:06:20.840Z,100801.59
2017-11-05T18:08:48.535Z,100803.12
2017-11-05T18:11:16.191Z,100801.17
2017-11-05T18:13:43.842Z,100803.95
2017-11-05T18:16:11.522Z,100802.14
2017-11-05T18:18:39.176Z,100800.90
2017-11-05T18:21:06.864Z,100798.27
2017-11-05T18:23:34.523Z,100798.27
2017-11-05T18:26:02.197Z,100803.82
2017-11-05T18:28:29.845Z,100807.65
2017-11-05T18:30:57.527Z,100811.32
2017-11-05T18:33:25.187Z,100820.75
2017-11-05T18:35:52.921Z,100826.53
2017-11-05T18:38:20.575Z,100823.29
2017-11-05T18:40:48.269Z,100829.17
2017-11-05T18:43:15.915Z,100837.95
2017-11-05T18:45:43.650Z,100839.98
2017-11-05T18:48:11.301Z,100841.55
2017-11-05T18:50:38.988Z,100841.08
2017-11-05T18:53:06.673Z,100837.09
2017-11-05T18:55:34.364Z,100852.68
2017-11-05T18:58:02.049Z,100842.48
2017-11-05T19:00:29.725Z,100840.87
2017-11-05T19:02:57.423Z,100842.27
2017-11-05T19:05:25.101Z,100845.95
2017-11-05T19:07:52.817Z,100854.88
2017-11-05T19:10:20.477Z,100854.08
2017-11-05T19:12:48.183Z,100859.98
2017-11-05T19:15:15.861Z,100867.55
2017-11-05T19:17:43.585Z,100873.55
2017-11-05T19:20:11.255Z,100875.84
2017-11-05T19:22:38.927Z,100879.06
2017-11-05T19:25:06.632Z,100884.61
2017-11-05T19:27:34.300Z,100891.02
2017-11-05T19:30:01.988Z,100898.37
2017-11-05T19:32:29.639Z,100903.78
2017-11-05T19:34:57.336Z,100903.57
2017-11-05T19:37:25.045Z,100911.55
2017-11-05T19:39:52.735Z,100917.16
2017-11-05T19:42:20.417Z,100925.95
2017-11-05T19:44:48.101Z,100925.88
2017-11-05T19:47:15.767Z,100934.78
2017-11-05T19:49:44.365Z,100927.88
2017-11-05T19:52:12.073Z,100927.88
2017-11-05T19:54:39.802Z,100925.55
2017-11-05T19:57:08.534Z,100922.78
2017-11-05T19:59:36.214Z,100929.33
2017-11-05T20:02:03.857Z,100936.01
2017-11-05T20:04:31.555Z,100930.63
2017-11-05T20:06:59.197Z,100934.41
2017-11-05T20:09:26.906Z,100937.76
2017-11-05T20:11:54.571Z,100945.30
2017-11-05T20:14:22.233Z,100938.81
2017-11-05T20:16:49.933Z,100950.09
2017-11-05T20:19:17.585Z,100956.38
2017-11-05T20:21:45.196Z,100957.26
2017-11-05T20:24:12.862Z,100959.25
2017-11-05T20:26:40.568Z,100958.72
2017-11-05T20:29:08.206Z,100965.98
2017-11-05T20:31:35.880Z,100963.20
2017-11-05T20:34:03.542Z,100972.39
2017-11-05T20:36:31.271Z,100973.39
2017-11-05T20:38:58.906Z,100971.23
2017-11-05T20:41:26.605Z,100978.06
2017-11-05T20:43:54.263Z,100980.86
2017-11-05T20:46:21.935Z,100982.02
2017-11-05T20:48:49.618Z,100978.84
2017-11-05T20:51:17.253Z,100988.56
2017-11-05T20:53:44.953Z,100980.83
2017-11-05T20:56:12.614Z,100989.43
2017-11-05T20:58:40.332Z,100992.31
2017-11-05T21:01:07.991Z,100996.20
2017-11-05T21:03:35.683Z,100995.01
2017-11-05T21:06:03.330Z,100991.29
2017-11-05T21:08:31.055Z,100996.66
2017-11-05T21:10:58.696Z,101000.18
2017-11-05T21:13:26.395Z,101002.23
2017-11-05T21:15:54.045Z,101002.27
2017-11-05T21:18:21.745Z,101010.03
2017-11-05T21:20:49.406Z,101011.85
2017-11-05T21:23:17.124Z,101015.60
2017-11-05T21:25:44.785Z,101022.69
2017-11-05T21:28:12.496Z,101025.47
2017-11-05T21:30:40.170Z,101029.75
2017-11-05T21:33:07.811Z,101025.19
2017-11-05T21:35:35.546Z,101029.48
2017-11-05T21:38:03.200Z,101032.56
2017-11-05T21:40:30.919Z,101033.53
2017-11-05T21:42:58.574Z,101046.84
2017-11-05T21:45:26.272Z,101040.22
2017-11-05T21:47:53.936Z,101037.85
2017-11-05T21:50:21.625Z,101044.38
2017-11-05T21:52:49.301Z,101049.23
2017-11-05T21:55:17.007Z,101050.61
2017-11-05T21:57:45.913Z,101043.59
2017-11-05T22:00:13.637Z,101047.76
2017-11-05T22:02:41.272Z,101045.69
2017-11-05T22:05:08.970Z,101052.48
2017-11-05T22:07:36.608Z,101056.81
2017-11-05T22:10:04.327Z,101062.73
2017-11-05T22:12:31.975Z,101070.78
2017-11-05T22:14:59.660Z,101073.69
2017-11-05T22:17:27.318Z,101071.52
2017-11-05T22:19:55.007Z,101079.82
2017-11-05T22:22:22.656Z,101081.47
2017-11-05T22:24:50.371Z,101085.76
2017-11-05T22:27:18.018Z,101081.62
2017-11-05T22:29:45.680Z,101086.44
2017-11-05T22:32:13.381Z,101085.89
2017-11-05T22:34:41.039Z,101086.02
2017-11-05T22:37:08.791Z,101089.62
2017-11-05T22:39:36.447Z,101089.50
2017-11-05T22:42:04.147Z,101097.38
2017-11-05T22:44:31.798Z,101096.14
2017-11-05T22:46:59.486Z,101103.75
2017-11-05T22:49:27.140Z,101100.87
2017-11-05T22:51:54.837Z,101105.81
2017-11-05T22:54:22.483Z,101121.44
2017-11-05T22:56:50.180Z,101122.81
2017-11-05T22:59:17.838Z,101119.09
2017-11-05T23:01:45.536Z,101119.09
2017-11-05T23:04:13.206Z,101127.38
2017-11-05T23:06:40.886Z,101129.34
2017-11-05T23:09:08.531Z,101136.36
2017-11-05T23:11:36.202Z,101136.66
2017-11-05T23:14:03.839Z,101143.27
2017-11-05T23:16:31.524Z,101144.94
2017-11-05T23:18:59.176Z,101154.18
2017-11-05T23:21:26.881Z,101157.61
2017-11-05T23:23:54.521Z,101157.05
2017-11-05T23:26:22.172Z,101158.41
2017-11-05T23:28:49.858Z,101161.74
2017-11-05T23:31:17.498Z,101160.61
2017-11-05T23:33:45.204Z,101159.52
2017-11-05T23:36:12.900Z,101160.19
2017-11-05T23:38:40.604Z,101168.89
2017-11-05T23:41:08.268Z,101170.14
2017-11-05T23:43:35.963Z,101178.11
2017-11-05T23:46:03.611Z,101181.02
2017-11-05T23:48:31.293Z,101184.33
2017-11-05T23:50:58.937Z,101176.59
2017-11-05T23:53:26.619Z,101172.19
2017-11-05T23:55:54.271Z,101178.11
2017-11-05T23:58:23.139Z,101187.34
